createdAt,value
2023-02-24T00:03:44.937Z,45.70
2023-02-24T00:08:47.313Z,45.20
2023-02-24T00:13:48.839Z,41.30
2023-02-24T00:18:51.056Z,37.28
2023-02-24T00:23:53.560Z,41.57
2023-02-24T00:28:55.894Z,38.72
2023-02-24T00:33:59.280Z,39.17
2023-02-24T00:39:09.342Z,33.83
2023-02-24T00:44:14.305Z,38.50
2023-02-24T00:49:18.443Z,35.75
2023-02-24T00:54:20.661Z,36.38
2023-02-24T00:59:23.995Z,29.93
2023-02-24T01:04:29.209Z,26.17
2023-02-24T01:09:32.213Z,28.80
2023-02-24T01:19:36.707Z,27.20
2023-02-24T01:24:40.166Z,28.75
2023-02-24T01:29:41.610Z,26.45
2023-02-24T01:34:44.122Z,25.13
2023-02-24T01:39:46.130Z,22.75
2023-02-24T01:44:47.842Z,21.67
2023-02-24T01:49:53.871Z,21.77
2023-02-24T01:54:55.403Z,20.35
2023-02-24T02:00:09.375Z,21.33
2023-02-24T02:05:15.134Z,21.38
2023-02-24T02:10:18.371Z,18.85
2023-02-24T02:15:20.526Z,19.30
2023-02-24T02:20:22.257Z,20.30
2023-02-24T02:25:57.974Z,21.40
2023-02-24T02:31:08.127Z,21.42
2023-02-24T02:36:31.172Z,20.25
2023-02-24T02:41:43.339Z,20.30
2023-02-24T02:46:51.033Z,20.77
2023-02-24T02:51:57.295Z,16.85
2023-02-24T02:57:14.571Z,18.75
2023-02-24T03:02:21.035Z,20.80
2023-02-24T03:07:31.172Z,18.83
2023-02-24T03:12:34.049Z,18.30
2023-02-24T03:17:42.292Z,19.50
2023-02-24T03:22:53.353Z,14.77
2023-02-24T03:27:58.452Z,13.52
2023-02-24T03:33:16.614Z,13.80
2023-02-24T03:38:23.141Z,12.27
2023-02-24T03:43:31.742Z,12.50
2023-02-24T03:48:43.753Z,14.13
2023-02-24T03:54:05.601Z,13.73
2023-02-24T03:59:23.588Z,15.05
2023-02-24T04:04:37.943Z,13.38
2023-02-24T04:10:04.609Z,12.23
2023-02-24T04:15:29.008Z,12.05
2023-02-24T04:20:34.256Z,12.20
2023-02-24T04:25:40.665Z,14.00
2023-02-24T04:30:48.309Z,12.07
2023-02-24T04:35:50.519Z,12.52
2023-02-24T04:40:52.447Z,12.73
2023-02-24T04:45:55.556Z,12.98
2023-02-24T04:51:02.383Z,12.30
2023-02-24T04:56:08.759Z,12.50
2023-02-24T05:01:10.918Z,14.10
2023-02-24T05:06:17.556Z,13.50
2023-02-24T05:11:19.450Z,14.82
2023-02-24T05:16:22.118Z,14.43
2023-02-24T05:21:35.627Z,13.13
2023-02-24T05:26:41.525Z,10.52
2023-02-24T05:31:43.365Z,8.00
2023-02-24T05:36:45.791Z,6.70
2023-02-24T05:41:49.608Z,7.40
2023-02-24T05:46:58.560Z,7.10
2023-02-24T05:52:08.640Z,8.48
2023-02-24T05:57:12.981Z,7.55
2023-02-24T06:02:17.442Z,6.82
2023-02-24T06:07:29.517Z,7.43
2023-02-24T06:12:39.730Z,6.15
2023-02-24T06:17:41.277Z,6.03
2023-02-24T06:22:42.720Z,10.95
2023-02-24T06:27:44.184Z,4.05
2023-02-24T06:32:45.697Z,3.45
2023-02-24T06:37:47.871Z,2.70
2023-02-24T06:42:55.144Z,2.75
2023-02-24T06:47:58.183Z,4.70
2023-02-24T06:58:08.229Z,3.00
2023-02-24T07:03:15.082Z,2.63
2023-02-24T07:08:18.815Z,2.92
2023-02-24T07:13:20.233Z,2.35
2023-02-24T07:18:22.819Z,3.25
2023-02-24T07:23:24.306Z,3.30
2023-02-24T07:28:25.722Z,3.03
2023-02-24T07:33:27.925Z,3.67
2023-02-24T07:38:29.373Z,3.03
2023-02-24T07:43:30.807Z,2.90
2023-02-24T07:48:32.196Z,3.17
2023-02-24T07:53:34.794Z,2.58
2023-02-24T07:58:36.245Z,2.20
2023-02-24T08:03:41.394Z,2.78
2023-02-24T08:08:57.769Z,1.92
2023-02-24T08:13:59.200Z,3.17
2023-02-24T08:19:03.319Z,2.97
2023-02-24T08:24:05.911Z,3.53
2023-02-24T08:29:07.361Z,2.38
2023-02-24T08:34:08.779Z,3.03
2023-02-24T08:39:10.196Z,3.40
2023-02-24T08:44:12.845Z,3.42
2023-02-24T08:49:16.924Z,3.80
2023-02-24T08:54:26.939Z,3.95
2023-02-24T08:59:54.612Z,3.55
2023-02-24T09:05:03.627Z,3.75
2023-02-24T09:10:17.592Z,4.18
2023-02-24T09:15:20.526Z,3.53
2023-02-24T09:20:43.191Z,3.60
2023-02-24T09:25:44.867Z,2.90
2023-02-24T09:30:51.593Z,3.17
2023-02-24T09:36:12.771Z,3.05
2023-02-24T09:41:31.562Z,3.85
2023-02-24T09:46:53.618Z,3.13
2023-02-24T09:52:00.549Z,3.05
2023-02-24T09:57:10.615Z,2.72
2023-02-24T10:02:44.221Z,2.63
2023-02-24T10:07:47.073Z,2.70
2023-02-24T10:12:52.891Z,2.22
2023-02-24T10:17:57.918Z,2.45
2023-02-24T10:23:32.681Z,2.70
2023-02-24T10:28:54.084Z,2.72
2023-02-24T10:34:10.977Z,2.75
2023-02-24T10:39:20.327Z,2.78
2023-02-24T10:44:24.204Z,3.45
2023-02-24T10:49:26.711Z,4.28
2023-02-24T10:54:52.964Z,4.65
2023-02-24T11:00:18.178Z,4.53
2023-02-24T11:05:38.604Z,4.10
2023-02-24T11:10:53.070Z,4.30
2023-02-24T11:16:14.096Z,4.60
2023-02-24T11:21:17.003Z,4.32
2023-02-24T11:26:21.800Z,4.50
2023-02-24T11:31:45.413Z,4.80
2023-02-24T11:36:57.253Z,5.13
2023-02-24T11:42:05.268Z,5.30
2023-02-24T11:47:15.282Z,4.90
2023-02-24T11:52:23.579Z,5.45
2023-02-24T11:57:41.577Z,5.00
2023-02-24T12:03:06.718Z,5.20
2023-02-24T12:08:29.657Z,5.22
2023-02-24T12:13:49.018Z,5.55
2023-02-24T12:18:59.070Z,5.85
2023-02-24T12:24:01.377Z,6.00
2023-02-24T12:29:29.949Z,6.67
2023-02-24T12:34:47.241Z,7.35
2023-02-24T12:39:58.521Z,7.53
2023-02-24T12:45:12.659Z,6.85
2023-02-24T12:50:23.488Z,7.85
2023-02-24T12:55:42.589Z,7.82
2023-02-24T13:00:57.499Z,8.20
2023-02-24T13:06:09.713Z,7.60
2023-02-24T13:11:39.794Z,8.05
2023-02-24T13:16:41.934Z,8.25
2023-02-24T13:21:43.663Z,7.97
2023-02-24T13:26:45.117Z,7.20
2023-02-24T13:31:52.155Z,7.82
2023-02-24T13:36:53.672Z,7.60
2023-02-24T13:42:20.363Z,7.57
2023-02-24T13:47:24.841Z,6.85
2023-02-24T13:52:32.594Z,6.57
2023-02-24T13:57:58.973Z,7.05
2023-02-24T14:03:00.789Z,6.80
2023-02-24T14:08:04.687Z,7.38
2023-02-24T14:13:27.563Z,9.30
2023-02-24T14:18:29.888Z,7.47
2023-02-24T14:23:33.986Z,8.43
2023-02-24T14:28:37.667Z,8.20
2023-02-24T14:33:42.617Z,8.45
2023-02-24T14:38:45.084Z,8.02
2023-02-24T14:43:46.514Z,7.60
2023-02-24T14:48:56.162Z,7.35
2023-02-24T14:54:01.965Z,7.70
2023-02-24T14:59:23.168Z,7.45
2023-02-24T15:04:33.532Z,6.20
2023-02-24T15:09:42.616Z,6.57
2023-02-24T15:14:51.710Z,6.82
2023-02-24T15:19:56.022Z,5.55
2023-02-24T15:25:12.548Z,6.30
2023-02-24T15:30:35.904Z,6.82
2023-02-24T15:35:46.653Z,7.30
2023-02-24T15:40:57.461Z,6.18
2023-02-24T15:45:58.999Z,6.75
2023-02-24T15:51:05.126Z,5.88
2023-02-24T15:56:06.577Z,5.80
2023-02-24T16:01:10.849Z,7.07
2023-02-24T16:06:21.190Z,6.68
2023-02-24T16:11:26.454Z,5.80
2023-02-24T16:16:28.200Z,8.07
2023-02-24T16:21:30.107Z,6.22
2023-02-24T16:26:36.103Z,7.15
2023-02-24T16:31:39.153Z,7.25
2023-02-24T16:36:42.384Z,7.05
2023-02-24T16:46:45.836Z,6.93
2023-02-24T16:51:47.282Z,6.38
2023-02-24T16:56:49.645Z,6.43
2023-02-24T17:01:51.106Z,7.00
2023-02-24T17:06:52.617Z,7.82
2023-02-24T17:11:54.030Z,6.80
2023-02-24T17:16:55.618Z,7.60
2023-02-24T17:21:57.138Z,6.55
2023-02-24T17:26:59.783Z,7.32
2023-02-24T17:32:01.461Z,7.30
2023-02-24T17:37:04.246Z,7.20
2023-02-24T17:47:08.918Z,6.70
2023-02-24T17:52:10.540Z,5.03
2023-02-24T17:57:12.000Z,5.55
2023-02-24T18:02:15.600Z,5.63
2023-02-24T18:07:17.640Z,5.05
2023-02-24T18:12:20.769Z,4.75
2023-02-24T18:17:23.351Z,4.20
2023-02-24T18:22:25.371Z,5.05
2023-02-24T18:27:27.092Z,6.18
2023-02-24T18:32:28.837Z,4.47
2023-02-24T18:37:30.481Z,4.22
2023-02-24T18:42:32.276Z,4.88
2023-02-24T18:47:33.680Z,4.43
2023-02-24T18:52:35.205Z,4.63
2023-02-24T18:57:36.986Z,4.32
2023-02-24T19:02:38.684Z,4.63
2023-02-24T19:07:40.253Z,4.57
2023-02-24T19:12:41.711Z,4.05
2023-02-24T19:17:44.096Z,3.65
2023-02-24T19:22:45.613Z,3.40
2023-02-24T19:27:49.760Z,3.22
2023-02-24T19:32:51.495Z,3.17
2023-02-24T19:37:53.136Z,3.33
2023-02-24T19:42:54.623Z,3.60
2023-02-24T19:47:56.211Z,61.88
2023-02-24T19:52:57.788Z,4.95
2023-02-24T19:57:59.427Z,3.88
2023-02-24T20:03:00.919Z,4.90
2023-02-24T20:08:02.605Z,4.40
2023-02-24T20:13:04.970Z,4.88
2023-02-24T20:18:08.658Z,5.83
2023-02-24T20:23:10.097Z,6.90
2023-02-24T20:28:11.767Z,6.97
2023-02-24T20:33:13.249Z,7.68
2023-02-24T20:38:15.231Z,7.25
2023-02-24T20:43:16.675Z,7.88
2023-02-24T20:48:18.459Z,7.85
2023-02-24T20:53:19.925Z,7.90
2023-02-24T20:58:21.430Z,8.95
2023-02-24T21:03:24.250Z,8.27
2023-02-24T21:08:25.676Z,7.63
2023-02-24T21:13:27.165Z,8.13
2023-02-24T21:18:28.668Z,8.88
2023-02-24T21:23:30.668Z,9.25
2023-02-24T21:28:32.330Z,9.10
2023-02-24T21:33:34.520Z,9.43
2023-02-24T21:38:36.976Z,9.00
2023-02-24T21:43:39.034Z,10.17
2023-02-24T21:48:41.626Z,9.55
2023-02-24T21:53:44.366Z,12.05
2023-02-24T21:58:48.895Z,10.23
2023-02-24T22:03:57.272Z,17.80
2023-02-24T22:09:00.039Z,8.30
2023-02-24T22:14:01.662Z,9.80
2023-02-24T22:19:03.995Z,9.40
2023-02-24T22:24:05.694Z,9.83
2023-02-24T22:29:07.741Z,9.90
2023-02-24T22:34:09.276Z,9.95
2023-02-24T22:39:10.948Z,9.43
2023-02-24T22:44:14.129Z,9.68
2023-02-24T22:54:17.593Z,10.75
2023-02-24T22:59:18.991Z,10.35
2023-02-24T23:04:20.474Z,10.25
2023-02-24T23:09:21.924Z,10.35
2023-02-24T23:14:23.345Z,11.25
2023-02-24T23:19:25.519Z,10.57
2023-02-24T23:24:26.918Z,9.00
2023-02-24T23:29:30.654Z,9.50
2023-02-24T23:34:32.130Z,9.43
2023-02-24T23:39:33.548Z,8.88
2023-02-24T23:44:37.584Z,8.90
2023-02-24T23:49:48.275Z,6.63
2023-02-24T23:54:50.663Z,7.32
2023-02-24T23:59:52.196Z,7.95
